Monday, August 21, 2017, 8:01 AM EDT
Back to Local

KAGC, Pittsburgh Allegheny Cty.

Location: West Mifflin, PA, United States Lat: 40.35
Local Time: 8:01 AM EDT (12:01 GMT) Lon: -79.917
Time Zone: US/Eastern Elev: 1253 ft

Show me the last for .
Show Decoded

2017-08-21 06:53 METAR KAGC 211053Z 17007KT 9SM CLR 19/16 A3017 RMK AO2 SLP215 T01890161 =
2017-08-21 05:53 METAR KAGC 210953Z 17007KT 8SM BKN065 19/17 A3017 RMK AO2 SLP212 T01940167 =
2017-08-21 04:53 METAR KAGC 210853Z AUTO 14005KT 10SM CLR 19/16 A3017 RMK AO2 SLP211 T01890161
                 53002 =
2017-08-21 03:53 METAR KAGC 210753Z AUTO 13003KT 10SM CLR 20/16 A3016 RMK AO2 SLP209 T02000156 =
2017-08-21 02:53 METAR KAGC 210653Z 14004KT 10SM CLR 20/16 A3016 RMK AO2 SLP209 T02000161 =
2017-08-21 01:53 METAR KAGC 210553Z 13004KT 10SM CLR 19/17 A3016 RMK AO2 SLP208 T01940167 10261
                 20194 58004 =
2017-08-21 00:53 METAR KAGC 210453Z 16004KT 10SM CLR 21/17 A3017 RMK AO2 SLP212 T02060167
                 402780144 =
2017-08-20 23:53 METAR KAGC 210353Z 14005KT 10SM CLR 21/17 A3017 RMK AO2 SLP212 T02110167 =
2017-08-20 22:53 METAR KAGC 210253Z 15003KT 10SM CLR 22/16 A3017 RMK AO2 SLP214 T02220161 51011 =
2017-08-20 21:53 METAR KAGC 210153Z 14003KT 10SM CLR 24/16 A3017 RMK AO2 SLP213 T02390156 =
2017-08-20 20:53 METAR KAGC 210053Z 13004KT 10SM CLR 25/14 A3015 RMK AO2 SLP207 T02500144 =
2017-08-20 19:53 METAR KAGC 202353Z 19003KT 10SM CLR 26/14 A3014 RMK AO2 SLP203 T02610144 10278
                 20261 53002 =
2017-08-20 18:53 METAR KAGC 202253Z 18004KT 10SM CLR 27/14 A3012 RMK AO2 SLP197 T02670144 =
2017-08-20 17:53 METAR KAGC 202153Z AUTO 16006KT 10SM CLR 27/14 A3012 RMK AO2 SLP198 T02720139 =
2017-08-20 16:53 METAR KAGC 202053Z 15004KT 10SM CLR 28/14 A3013 RMK AO2 SLP199 T02780144 58009 =
2017-08-20 15:53 METAR KAGC 201953Z 00000KT 10SM CLR 27/14 A3014 RMK AO2 SLP201 T02720139 =
2017-08-20 14:53 METAR KAGC 201853Z 00000KT 10SM CLR 27/13 A3015 RMK AO2 SLP208 T02670133 =
2017-08-20 13:53 METAR KAGC 201753Z 10SM CLR 27/14 A3016 RMK AO2 SLP209 T02670139 10267 20161
                 58003 =
2017-08-20 12:53 METAR KAGC 201653Z 00000KT 10SM CLR 25/14 A3016 RMK AO2 SLP211 T02500139 =
2017-08-20 11:53 METAR KAGC 201553Z 00000KT 10SM CLR 23/14 A3017 RMK AO2 SLP213 T02330144 =
2017-08-20 10:53 METAR KAGC 201453Z 00000KT 10SM CLR 21/17 A3017 RMK AO2 SLP214 T02110172 53012 =
2017-08-20 10:18 METAR KAGC 201418Z 12004KT 7SM FEW002 19/17 A3015 RMK AO2 T01890167 =
2017-08-20 10:08 METAR KAGC 201408Z 12003KT 3SM BR BKN002 19/17 A3015 RMK AO2 T01890167 =
2017-08-20 09:57 METAR KAGC 201357Z 15003KT 1SM R28/1600VP6000FT BR VV002 18/17 A3015 RMK AO2
                 T01830172 =
2017-08-20 09:53 METAR KAGC 201353Z 14003KT 1/4SM R28/0800VP6000FT FG VV002 18/17 A3015 RMK AO2
                 SLP210 T01830172 =
2017-08-20 09:40 METAR KAGC 201340Z 00000KT 1/4SM R28/0700V1400FT FG VV002 18/17 A3015 RMK AO2
                 T01780167 =
2017-08-20 09:23 METAR KAGC 201323Z 00000KT 1/2SM R28/1200VP6000FT FG VV002 17/16 A3014 RMK AO2
                 T01720161 =
2017-08-20 08:53 METAR KAGC 201253Z 00000KT M1/4SM R28/0400V0500FT FG VV001 17/16 A3014 RMK AO2
                 SLP206 T01670161 =

Support USWX by starting your Amazon purchase here.